Time;durP1;ratioP1;P1;durP2;ratioP2;P2;SDS_P1;SDS_P2;PMS_P1;PMS_P2;Temp;Humidity;BMP_temperature;BMP_pressure;BME280_temperature;BME280_humidity;BME280_pressure;Samples;Min_cycle;Max_cycle;Signal;HPM_P1;HPM_P2
2020/12/26 00:00:36;;;;;;;;;;;3.00;95.40;;;;;;4717457;30;20429;-76
2020/12/26 00:03:01;;;;;;;;;;;2.90;95.50;;;;;;4717181;30;19957;-76
2020/12/26 00:05:27;;;;;;;;;;;2.90;95.40;;;;;;4716563;30;19915;-76
2020/12/26 00:07:53;;;;;;;;;;;3.00;95.10;;;;;;4715554;30;19926;-76
2020/12/26 00:10:20;;;;;;;;;;;2.90;94.70;;;;;;4715548;30;19918;-76
2020/12/26 00:12:49;;;;;;;;;;;3.10;93.50;;;;;;4716401;30;20333;-76
2020/12/26 00:15:15;;;;;;;;;;;3.00;94.10;;;;;;4716897;30;19915;-76
2020/12/26 00:17:40;;;;;;;;;;;2.90;94.80;;;;;;4725673;30;20417;-76
2020/12/26 00:20:06;;;;;;;;;;;2.90;94.40;;;;;;4733341;30;19918;-76
2020/12/26 00:22:35;;;;;;;;;;;2.90;95.10;;;;;;4732230;30;19914;-76
2020/12/26 00:25:01;;;;;;;;;;;3.00;94.30;;;;;;4739643;30;19985;-76
2020/12/26 00:27:27;;;;;;;;;;;2.90;95.10;;;;;;4751545;30;19922;-76
2020/12/26 00:29:53;;;;;;;;;;;2.80;94.80;;;;;;4739295;30;19922;-76
2020/12/26 00:32:20;;;;;;;;;;;2.80;95.10;;;;;;4734092;30;19915;-76
2020/12/26 00:34:46;;;;;;;;;;;2.80;95.50;;;;;;4733962;30;19922;-76
2020/12/26 00:37:14;;;;;;;;;;;2.80;95.30;;;;;;4734004;30;19963;-76
2020/12/26 00:39:40;;;;;;;;;;;2.70;96.40;;;;;;4733484;30;19950;-76
2020/12/26 00:42:06;;;;;;;;;;;2.90;93.90;;;;;;4738482;30;19956;-75
2020/12/26 00:44:31;;;;;;;;;;;2.80;95.30;;;;;;4733822;30;20360;-76
2020/12/26 00:46:57;;;;;;;;;;;2.80;94.90;;;;;;4753161;30;19914;-76
2020/12/26 00:49:23;;;;;;;;;;;2.70;95.30;;;;;;4747860;30;19923;-75
2020/12/26 00:51:49;;;;;;;;;;;2.70;95.00;;;;;;4736985;30;19914;-76
2020/12/26 00:54:14;;;;;;;;;;;2.60;96.00;;;;;;4736792;30;19923;-76
2020/12/26 00:56:40;;;;;;;;;;;2.60;96.00;;;;;;4736986;30;20326;-76
2020/12/26 00:59:06;;;;;;;;;;;2.60;95.70;;;;;;4737205;30;19915;-76
2020/12/26 01:01:31;;;;;;;;;;;2.70;95.00;;;;;;4742887;30;20010;-76
2020/12/26 01:03:57;;;;;;;;;;;2.60;95.10;;;;;;4754073;30;20360;-76
2020/12/26 01:06:23;;;;;;;;;;;2.60;95.50;;;;;;4754162;30;20415;-76
2020/12/26 01:08:48;;;;;;;;;;;2.50;95.80;;;;;;4754011;30;19965;-76
2020/12/26 01:11:14;;;;;;;;;;;2.50;95.40;;;;;;4754240;30;20354;-76
2020/12/26 01:13:39;;;;;;;;;;;2.70;93.80;;;;;;4754652;30;20256;-75
2020/12/26 01:16:05;;;;;;;;;;;2.60;94.00;;;;;;4750026;30;20383;-75
2020/12/26 01:18:31;;;;;;;;;;;2.60;93.60;;;;;;4736173;30;19922;-76
2020/12/26 01:20:56;;;;;;;;;;;2.70;93.60;;;;;;4736204;30;19950;-76
2020/12/26 01:23:23;;;;;;;;;;;2.50;95.20;;;;;;4736245;30;19915;-76
2020/12/26 01:25:49;;;;;;;;;;;2.50;94.90;;;;;;4736451;30;19921;-76
2020/12/26 01:28:15;;;;;;;;;;;2.60;93.90;;;;;;4736208;30;19973;-76
2020/12/26 01:30:41;;;;;;;;;;;2.60;93.80;;;;;;4736810;30;19914;-76
2020/12/26 01:33:06;;;;;;;;;;;2.60;93.30;;;;;;4736541;30;19922;-76
2020/12/26 01:35:32;;;;;;;;;;;2.70;92.90;;;;;;4735879;30;20039;-76
2020/12/26 01:37:58;;;;;;;;;;;2.60;93.00;;;;;;4741730;30;20389;-76
2020/12/26 01:40:23;;;;;;;;;;;2.70;91.90;;;;;;4753895;30;19970;-76
2020/12/26 01:42:49;;;;;;;;;;;2.70;91.50;;;;;;4753581;30;19918;-76
2020/12/26 01:45:15;;;;;;;;;;;2.60;92.30;;;;;;4753611;30;20102;-76
2020/12/26 01:47:40;;;;;;;;;;;2.70;92.00;;;;;;4754023;30;19929;-76
2020/12/26 01:50:06;;;;;;;;;;;2.60;92.20;;;;;;4752137;30;19914;-76
2020/12/26 01:52:32;;;;;;;;;;;2.60;92.40;;;;;;4753418;30;20767;-76
2020/12/26 01:54:59;;;;;;;;;;;2.40;94.50;;;;;;4753645;30;19925;-76
2020/12/26 01:57:32;;;;;;;;;;;2.40;95.40;;;;;;4753221;30;20371;-76
2020/12/26 01:59:58;;;;;;;;;;;2.40;94.30;;;;;;4753531;30;20004;-76
2020/12/26 02:02:23;;;;;;;;;;;2.40;94.50;;;;;;4753564;30;19972;-76
2020/12/26 02:04:49;;;;;;;;;;;2.40;93.70;;;;;;4753771;30;19944;-76
2020/12/26 02:07:15;;;;;;;;;;;2.40;93.90;;;;;;4753368;30;20396;-76
2020/12/26 02:09:40;;;;;;;;;;;2.40;94.90;;;;;;4753986;30;19918;-76
2020/12/26 02:12:06;;;;;;;;;;;2.40;94.80;;;;;;4753516;30;20390;-76
2020/12/26 02:14:32;;;;;;;;;;;2.40;95.70;;;;;;4752178;30;19983;-76
2020/12/26 02:16:58;;;;;;;;;;;2.30;95.90;;;;;;4753283;30;19914;-76
2020/12/26 02:19:25;;;;;;;;;;;2.40;95.70;;;;;;4753154;30;19921;-76
2020/12/26 02:21:51;;;;;;;;;;;2.40;95.10;;;;;;4753163;30;19918;-76
2020/12/26 02:24:16;;;;;;;;;;;2.40;95.00;;;;;;4753388;30;19914;-76
2020/12/26 02:26:42;;;;;;;;;;;2.40;95.50;;;;;;4753696;30;20004;-76
2020/12/26 02:29:08;;;;;;;;;;;2.40;95.20;;;;;;4753151;30;20009;-76
2020/12/26 02:31:35;;;;;;;;;;;2.30;95.10;;;;;;4753044;30;20004;-76
2020/12/26 02:34:01;;;;;;;;;;;2.40;94.80;;;;;;4752696;30;20336;-76
2020/12/26 02:36:26;;;;;;;;;;;2.40;94.40;;;;;;4744520;30;19946;-76
2020/12/26 02:38:52;;;;;;;;;;;2.50;94.60;;;;;;4735415;30;20291;-76
2020/12/26 02:41:17;;;;;;;;;;;2.50;94.30;;;;;;4734808;30;19965;-76
2020/12/26 02:43:43;;;;;;;;;;;2.40;94.40;;;;;;4735480;30;19915;-76
2020/12/26 02:46:09;;;;;;;;;;;2.50;94.40;;;;;;4728567;30;19914;-76
2020/12/26 02:48:34;;;;;;;;;;;2.40;94.10;;;;;;4729999;30;20299;-76
2020/12/26 02:51:00;;;;;;;;;;;2.40;94.70;;;;;;4734466;30;19925;-76
2020/12/26 02:53:26;;;;;;;;;;;2.50;94.30;;;;;;4735117;30;19958;-76
2020/12/26 02:55:52;;;;;;;;;;;2.50;95.20;;;;;;4735045;30;19914;-75
2020/12/26 02:58:18;;;;;;;;;;;2.40;94.70;;;;;;4734321;30;20005;-76
2020/12/26 03:00:43;;;;;;;;;;;2.40;95.00;;;;;;4734613;30;20051;-76
2020/12/26 03:03:09;;;;;;;;;;;2.30;95.20;;;;;;4734053;30;19987;-75
2020/12/26 03:05:34;;;;;;;;;;;2.40;94.80;;;;;;4733866;30;20009;-75
2020/12/26 03:08:00;;;;;;;;;;;2.50;94.60;;;;;;4734730;30;19926;-75
2020/12/26 03:10:26;;;;;;;;;;;2.40;94.80;;;;;;4734488;30;19996;-76
2020/12/26 03:12:52;;;;;;;;;;;2.30;95.30;;;;;;4734299;30;19918;-76
2020/12/26 03:15:18;;;;;;;;;;;2.20;95.20;;;;;;4717269;30;20360;-76
2020/12/26 03:17:44;;;;;;;;;;;2.20;95.00;;;;;;4719745;30;19922;-75
2020/12/26 03:20:09;;;;;;;;;;;2.40;94.50;;;;;;4733871;30;19921;-76
2020/12/26 03:22:35;;;;;;;;;;;2.40;94.70;;;;;;4733161;30;19954;-75
2020/12/26 03:25:01;;;;;;;;;;;2.40;94.40;;;;;;4734301;30;20344;-76
2020/12/26 03:27:27;;;;;;;;;;;2.50;93.00;;;;;;4733842;30;19921;-76
2020/12/26 03:29:53;;;;;;;;;;;2.40;93.80;;;;;;4734400;30;19957;-76
2020/12/26 03:32:19;;;;;;;;;;;2.30;93.80;;;;;;4733758;30;19915;-76
2020/12/26 03:34:44;;;;;;;;;;;2.40;93.30;;;;;;4733711;30;19914;-76
2020/12/26 03:37:10;;;;;;;;;;;2.30;93.80;;;;;;4733622;30;19921;-76
2020/12/26 03:39:36;;;;;;;;;;;2.40;93.30;;;;;;4733863;30;19976;-76
2020/12/26 03:42:06;;;;;;;;;;;2.40;93.10;;;;;;4733876;30;20441;-76
2020/12/26 03:44:31;;;;;;;;;;;2.40;92.50;;;;;;4733094;30;19918;-76
2020/12/26 03:46:57;;;;;;;;;;;2.30;92.40;;;;;;4733904;30;19921;-76
2020/12/26 03:49:23;;;;;;;;;;;2.30;92.90;;;;;;4733696;30;20406;-76
2020/12/26 03:51:49;;;;;;;;;;;2.30;92.90;;;;;;4733996;30;19983;-76
2020/12/26 03:54:15;;;;;;;;;;;2.20;93.40;;;;;;4734163;30;20383;-76
2020/12/26 03:56:40;;;;;;;;;;;2.20;92.60;;;;;;4733307;30;19922;-76
2020/12/26 03:59:06;;;;;;;;;;;2.20;92.50;;;;;;4717548;30;19921;-76
2020/12/26 04:01:32;;;;;;;;;;;2.10;92.10;;;;;;4717203;30;19914;-76
2020/12/26 04:03:57;;;;;;;;;;;2.30;92.00;;;;;;4724292;30;20294;-77
2020/12/26 04:06:23;;;;;;;;;;;2.10;92.70;;;;;;4723604;30;19940;-76
2020/12/26 04:08:48;;;;;;;;;;;2.10;92.40;;;;;;4722832;30;19930;-76
2020/12/26 04:11:14;;;;;;;;;;;2.20;93.00;;;;;;4732237;30;19918;-76
2020/12/26 04:13:40;;;;;;;;;;;2.20;92.90;;;;;;4729350;30;19964;-76
2020/12/26 04:16:09;;;;;;;;;;;2.10;92.70;;;;;;4733627;30;19922;-76
2020/12/26 04:18:34;;;;;;;;;;;2.10;93.00;;;;;;4724751;30;20376;-76
2020/12/26 04:21:00;;;;;;;;;;;2.00;93.50;;;;;;4726285;30;19919;-76
2020/12/26 04:23:26;;;;;;;;;;;2.00;93.50;;;;;;4731818;30;19976;-76
2020/12/26 04:25:51;;;;;;;;;;;2.10;93.70;;;;;;4735867;30;20291;-76
2020/12/26 04:28:17;;;;;;;;;;;2.10;93.70;;;;;;4736036;30;19922;-76
2020/12/26 04:30:42;;;;;;;;;;;2.10;94.30;;;;;;4736888;30;19921;-76
2020/12/26 04:33:08;;;;;;;;;;;2.00;94.40;;;;;;4736979;30;19914;-76
2020/12/26 04:35:34;;;;;;;;;;;2.10;94.30;;;;;;4736512;30;19914;-76
2020/12/26 04:37:59;;;;;;;;;;;2.00;94.40;;;;;;4736453;30;19914;-76
2020/12/26 04:40:25;;;;;;;;;;;2.10;94.80;;;;;;4736834;30;19976;-76
2020/12/26 04:42:51;;;;;;;;;;;2.10;94.90;;;;;;4737133;30;19922;-76
2020/12/26 04:45:17;;;;;;;;;;;2.10;94.80;;;;;;4736548;30;19915;-76
2020/12/26 04:47:45;;;;;;;;;;;2.10;94.10;;;;;;4736445;30;19926;-76
2020/12/26 04:50:12;;;;;;;;;;;2.20;94.10;;;;;;4736033;30;19941;-76
2020/12/26 04:52:45;;;;;;;;;;;2.10;94.90;;;;;;4729185;30;19922;-76
2020/12/26 04:55:11;;;;;;;;;;;2.30;94.70;;;;;;4719550;30;19929;-76
2020/12/26 04:57:36;;;;;;;;;;;2.10;94.40;;;;;;4721850;30;19915;-76
2020/12/26 05:00:05;;;;;;;;;;;2.00;95.00;;;;;;4719469;30;19915;-76
2020/12/26 05:02:41;;;;;;;;;;;2.00;95.20;;;;;;4730738;30;19921;-76
2020/12/26 05:05:07;;;;;;;;;;;2.10;95.00;;;;;;4719477;30;19922;-76
2020/12/26 05:07:35;;;;;;;;;;;2.20;95.50;;;;;;4729010;30;20001;-76
2020/12/26 05:10:01;;;;;;;;;;;2.10;94.40;;;;;;4735865;30;19925;-75
2020/12/26 05:12:26;;;;;;;;;;;2.10;95.50;;;;;;4724522;30;19914;-76
2020/12/26 05:14:52;;;;;;;;;;;2.00;95.10;;;;;;4734400;30;20001;-76
2020/12/26 05:17:19;;;;;;;;;;;2.10;95.70;;;;;;4736715;30;19922;-76
2020/12/26 05:19:45;;;;;;;;;;;2.10;94.20;;;;;;4736443;30;19918;-76
2020/12/26 05:22:11;;;;;;;;;;;2.10;94.90;;;;;;4736205;30;19986;-76
2020/12/26 05:24:37;;;;;;;;;;;2.20;94.00;;;;;;4734841;30;19945;-76
2020/12/26 05:27:02;;;;;;;;;;;2.20;93.90;;;;;;4733006;30;19914;-76
2020/12/26 05:29:29;;;;;;;;;;;2.20;93.70;;;;;;4719184;30;20387;-76
2020/12/26 05:31:58;;;;;;;;;;;2.10;94.80;;;;;;4723605;30;19972;-75
2020/12/26 05:34:35;;;;;;;;;;;2.10;94.70;;;;;;4735546;30;19921;-75
2020/12/26 05:37:04;;;;;;;;;;;2.10;94.50;;;;;;4735937;30;19918;-75
2020/12/26 05:39:30;;;;;;;;;;;2.10;94.90;;;;;;4736309;30;20001;-75
2020/12/26 05:41:56;;;;;;;;;;;2.20;93.90;;;;;;4732621;30;20005;-75
2020/12/26 05:44:32;;;;;;;;;;;2.10;94.70;;;;;;4733684;30;20016;-75
2020/12/26 05:46:58;;;;;;;;;;;2.20;93.80;;;;;;4734565;30;19914;-75
2020/12/26 05:49:26;;;;;;;;;;;2.20;93.90;;;;;;4705529;30;20312;-75
2020/12/26 05:51:53;;;;;;;;;;;2.20;93.70;;;;;;4726566;30;19915;-75
2020/12/26 05:54:19;;;;;;;;;;;2.10;94.10;;;;;;4718529;30;19980;-75
2020/12/26 05:56:45;;;;;;;;;;;2.10;94.50;;;;;;4722203;30;19914;-75
2020/12/26 05:59:23;;;;;;;;;;;2.10;93.80;;;;;;4718529;30;19922;-75
2020/12/26 06:01:49;;;;;;;;;;;2.10;94.40;;;;;;4734095;30;19915;-75
2020/12/26 06:04:18;;;;;;;;;;;2.20;93.90;;;;;;4734929;30;20017;-75
2020/12/26 06:06:45;;;;;;;;;;;2.10;93.40;;;;;;4735308;30;20001;-75
2020/12/26 06:09:11;;;;;;;;;;;2.10;94.30;;;;;;4734375;30;19980;-75
2020/12/26 06:11:37;;;;;;;;;;;2.00;94.80;;;;;;4741011;30;19962;-75
2020/12/26 06:14:03;;;;;;;;;;;2.00;95.20;;;;;;4735360;30;19941;-75
2020/12/26 06:16:29;;;;;;;;;;;1.90;95.90;;;;;;4734952;30;19965;-76
2020/12/26 06:18:59;;;;;;;;;;;2.10;94.50;;;;;;4735964;30;19914;-75
2020/12/26 06:21:25;;;;;;;;;;;2.00;94.80;;;;;;4722850;30;20002;-75
2020/12/26 06:23:51;;;;;;;;;;;1.90;95.50;;;;;;4735115;30;20001;-75
2020/12/26 06:26:17;;;;;;;;;;;2.00;95.80;;;;;;4734074;30;20435;-75
2020/12/26 06:28:43;;;;;;;;;;;2.10;94.60;;;;;;4735278;30;20014;-75
2020/12/26 06:31:09;;;;;;;;;;;2.10;95.10;;;;;;4733707;30;19922;-75
2020/12/26 06:33:38;;;;;;;;;;;2.00;94.00;;;;;;4717906;30;19915;-75
2020/12/26 06:36:05;;;;;;;;;;;2.00;94.20;;;;;;4717548;30;19915;-75
2020/12/26 06:38:30;;;;;;;;;;;2.00;95.00;;;;;;4718080;30;19981;-75
2020/12/26 06:41:01;;;;;;;;;;;2.00;93.80;;;;;;4720025;30;19918;-75
2020/12/26 06:43:39;;;;;;;;;;;1.90;94.30;;;;;;4735615;30;19915;-75
2020/12/26 06:46:28;;;;;;;;;;;2.10;92.90;;;;;;4735175;30;19921;-75
2020/12/26 06:48:55;;;;;;;;;;;2.10;93.00;;;;;;4727801;30;19990;-75
2020/12/26 06:51:34;;;;;;;;;;;1.90;93.70;;;;;;4719067;30;19957;-75
2020/12/26 06:54:03;;;;;;;;;;;1.90;93.70;;;;;;4727390;30;19929;-75
2020/12/26 06:56:32;;;;;;;;;;;1.90;94.20;;;;;;4735445;30;19914;-75
2020/12/26 06:59:04;;;;;;;;;;;1.90;93.90;;;;;;4735550;30;20366;-75
2020/12/26 07:01:31;;;;;;;;;;;1.90;93.20;;;;;;4718413;30;19946;-75
2020/12/26 07:04:05;;;;;;;;;;;1.80;94.20;;;;;;4717877;30;19973;-75
2020/12/26 07:06:38;;;;;;;;;;;1.70;94.10;;;;;;4717440;30;19918;-75
2020/12/26 07:09:04;;;;;;;;;;;1.70;95.40;;;;;;4727015;30;19929;-75
2020/12/26 07:11:30;;;;;;;;;;;1.70;95.40;;;;;;4735488;30;19997;-75
2020/12/26 07:13:56;;;;;;;;;;;1.90;95.90;;;;;;4734435;30;19925;-75
2020/12/26 07:16:40;;;;;;;;;;;2.00;94.90;;;;;;4734929;30;19926;-75
2020/12/26 07:19:25;;;;;;;;;;;2.00;95.40;;;;;;4733988;30;19919;-75
2020/12/26 07:22:12;;;;;;;;;;;2.00;94.20;;;;;;4734920;30;19918;-75
2020/12/26 07:24:42;;;;;;;;;;;2.10;94.50;;;;;;4734779;30;19918;-75
2020/12/26 07:27:18;;;;;;;;;;;2.10;94.00;;;;;;4727374;30;19972;-75
2020/12/26 07:29:48;;;;;;;;;;;2.00;94.50;;;;;;4717236;30;19927;-75
2020/12/26 07:32:32;;;;;;;;;;;1.90;94.80;;;;;;4717094;30;20276;-75
2020/12/26 07:34:58;;;;;;;;;;;1.80;95.00;;;;;;4717515;30;19915;-75
2020/12/26 07:37:23;;;;;;;;;;;2.00;94.30;;;;;;4722005;30;19921;-75
2020/12/26 07:39:49;;;;;;;;;;;2.00;94.30;;;;;;4734565;30;20382;-75
2020/12/26 07:42:16;;;;;;;;;;;2.00;94.30;;;;;;4734531;30;20347;-75
2020/12/26 07:44:42;;;;;;;;;;;2.00;93.20;;;;;;4734458;30;19957;-75
2020/12/26 07:47:09;;;;;;;;;;;2.00;93.20;;;;;;4727934;30;19953;-75
2020/12/26 07:49:34;;;;;;;;;;;2.10;93.30;;;;;;4716560;30;19922;-76
2020/12/26 07:52:01;;;;;;;;;;;2.00;93.10;;;;;;4717359;30;19925;-75
2020/12/26 07:54:26;;;;;;;;;;;1.90;93.80;;;;;;4716665;30;19922;-75
2020/12/26 07:56:55;;;;;;;;;;;1.90;93.60;;;;;;4728842;30;19921;-75
2020/12/26 07:59:21;;;;;;;;;;;2.00;93.10;;;;;;4739903;30;19995;-75
2020/12/26 08:01:57;;;;;;;;;;;1.90;93.30;;;;;;4739986;30;19921;-75
2020/12/26 08:04:23;;;;;;;;;;;1.90;93.20;;;;;;4729923;30;20059;-75
2020/12/26 08:06:49;;;;;;;;;;;2.10;92.60;;;;;;4722367;30;19915;-75
2020/12/26 08:09:15;;;;;;;;;;;2.00;92.60;;;;;;4722337;30;19969;-75
2020/12/26 08:11:42;;;;;;;;;;;1.90;93.70;;;;;;4722037;30;19953;-75
2020/12/26 08:14:08;;;;;;;;;;;2.00;93.00;;;;;;4739817;30;19914;-75
2020/12/26 08:16:34;;;;;;;;;;;2.00;93.10;;;;;;4740311;30;19921;-75
2020/12/26 08:19:03;;;;;;;;;;;2.00;93.80;;;;;;4740162;30;19972;-75
2020/12/26 08:21:29;;;;;;;;;;;1.90;93.70;;;;;;4727278;30;19914;-75
2020/12/26 08:23:56;;;;;;;;;;;1.90;94.10;;;;;;4722187;30;19919;-75
2020/12/26 08:26:22;;;;;;;;;;;2.00;91.60;;;;;;4721960;30;19918;-75
2020/12/26 08:28:48;;;;;;;;;;;2.10;92.70;;;;;;4722783;30;20022;-75
2020/12/26 08:31:15;;;;;;;;;;;2.10;93.20;;;;;;4737986;30;19921;-75
2020/12/26 08:33:45;;;;;;;;;;;2.10;92.70;;;;;;4737332;30;19946;-75
2020/12/26 08:36:35;;;;;;;;;;;2.10;93.30;;;;;;4738702;30;20005;-75
2020/12/26 08:39:03;;;;;;;;;;;2.10;93.20;;;;;;4733433;30;20390;-75
2020/12/26 08:41:30;;;;;;;;;;;2.20;93.80;;;;;;4722857;30;19915;-75
2020/12/26 08:43:56;;;;;;;;;;;2.20;93.80;;;;;;4734023;30;20234;-75
2020/12/26 08:46:23;;;;;;;;;;;2.30;93.80;;;;;;4737343;30;19921;-75
2020/12/26 08:48:50;;;;;;;;;;;2.30;93.90;;;;;;4723099;30;19929;-75
2020/12/26 08:51:17;;;;;;;;;;;2.40;93.80;;;;;;4738003;30;19918;-75
2020/12/26 08:53:46;;;;;;;;;;;2.50;94.60;;;;;;4723951;30;20450;-76
2020/12/26 08:56:12;;;;;;;;;;;2.40;92.60;;;;;;4721172;30;19915;-75
2020/12/26 08:58:38;;;;;;;;;;;2.50;94.00;;;;;;4719734;30;20300;-75
2020/12/26 09:01:05;;;;;;;;;;;2.50;92.40;;;;;;4721429;30;19945;-74
2020/12/26 09:03:32;;;;;;;;;;;2.50;91.40;;;;;;4721312;30;19915;-75
2020/12/26 09:05:58;;;;;;;;;;;2.50;92.10;;;;;;4720527;30;20158;-75
2020/12/26 09:08:27;;;;;;;;;;;2.40;92.60;;;;;;4718366;30;19922;-74
2020/12/26 09:10:57;;;;;;;;;;;2.40;93.40;;;;;;4718398;30;19915;-75
2020/12/26 09:13:28;;;;;;;;;;;2.50;92.20;;;;;;4717860;30;20287;-74
2020/12/26 09:15:59;;;;;;;;;;;2.50;92.30;;;;;;4718038;30;19922;-74
2020/12/26 09:18:25;;;;;;;;;;;2.40;92.70;;;;;;4717584;30;19915;-74
2020/12/26 09:20:55;;;;;;;;;;;2.30;92.70;;;;;;4717307;30;20415;-75
2020/12/26 09:23:21;;;;;;;;;;;2.40;93.80;;;;;;4717939;30;19915;-75
2020/12/26 09:25:48;;;;;;;;;;;2.30;92.90;;;;;;4717230;30;19964;-75
2020/12/26 09:28:14;;;;;;;;;;;2.30;93.00;;;;;;4716780;30;19930;-75
2020/12/26 09:30:39;;;;;;;;;;;2.20;93.40;;;;;;4717794;30;19942;-75
2020/12/26 09:33:05;;;;;;;;;;;2.20;92.80;;;;;;4717265;30;19919;-74
2020/12/26 09:35:31;;;;;;;;;;;2.30;93.30;;;;;;4716838;30;19915;-74
2020/12/26 09:37:57;;;;;;;;;;;2.40;92.80;;;;;;4709411;30;19966;-75
2020/12/26 09:40:32;;;;;;;;;;;2.30;91.80;;;;;;4698957;30;19915;-75
2020/12/26 09:42:58;;;;;;;;;;;2.50;93.00;;;;;;4711044;30;19972;-75
2020/12/26 09:45:24;;;;;;;;;;;2.40;92.10;;;;;;4734361;30;20031;-75
2020/12/26 09:47:50;;;;;;;;;;;2.50;92.50;;;;;;4733475;30;20053;-75
2020/12/26 09:50:16;;;;;;;;;;;2.50;93.10;;;;;;4734815;30;20463;-75
2020/12/26 09:52:42;;;;;;;;;;;2.60;93.40;;;;;;4723161;30;19915;-75
2020/12/26 09:55:11;;;;;;;;;;;2.50;92.30;;;;;;4731558;30;19929;-75
2020/12/26 09:57:37;;;;;;;;;;;2.60;92.70;;;;;;4734547;30;19918;-75
2020/12/26 10:00:07;;;;;;;;;;;2.60;91.80;;;;;;4735544;30;19914;-75
2020/12/26 10:02:32;;;;;;;;;;;2.50;92.40;;;;;;4735988;30;19921;-75
2020/12/26 10:04:58;;;;;;;;;;;2.60;91.90;;;;;;4734228;30;19915;-74
2020/12/26 10:07:24;;;;;;;;;;;2.60;91.80;;;;;;4734644;30;19915;-74
2020/12/26 10:09:49;;;;;;;;;;;2.60;91.40;;;;;;4733221;30;20052;-74
2020/12/26 10:12:15;;;;;;;;;;;2.60;92.40;;;;;;4718162;30;20390;-74
2020/12/26 10:14:41;;;;;;;;;;;2.60;93.00;;;;;;4718420;30;19923;-74
2020/12/26 10:17:07;;;;;;;;;;;2.60;92.10;;;;;;4729919;30;20294;-74
2020/12/26 10:19:32;;;;;;;;;;;2.70;92.00;;;;;;4734822;30;19925;-75
2020/12/26 10:21:58;;;;;;;;;;;2.70;91.60;;;;;;4734904;30;19921;-75
2020/12/26 10:24:23;;;;;;;;;;;2.80;91.40;;;;;;4734935;30;20306;-75
2020/12/26 10:26:49;;;;;;;;;;;3.10;92.90;;;;;;4741876;30;19957;-76
2020/12/26 10:29:15;;;;;;;;;;;3.10;91.10;;;;;;4705377;30;19931;-76
2020/12/26 10:31:40;;;;;;;;;;;3.10;91.20;;;;;;4732686;30;19921;-74
2020/12/26 10:34:06;;;;;;;;;;;3.40;91.30;;;;;;4732856;30;19918;-77
2020/12/26 10:36:32;;;;;;;;;;;3.50;91.60;;;;;;4724045;30;19914;-76
2020/12/26 10:38:57;;;;;;;;;;;3.40;90.00;;;;;;4734115;30;19914;-76
2020/12/26 10:41:23;;;;;;;;;;;3.50;90.70;;;;;;4734102;30;19918;-76
2020/12/26 10:43:48;;;;;;;;;;;3.60;90.90;;;;;;4734261;30;19953;-77
2020/12/26 10:46:14;;;;;;;;;;;3.80;90.40;;;;;;4718090;30;20275;-75
2020/12/26 10:48:40;;;;;;;;;;;3.40;90.20;;;;;;4716390;30;19930;-75
2020/12/26 10:51:06;;;;;;;;;;;3.20;90.80;;;;;;4731473;30;19918;-75
2020/12/26 10:53:31;;;;;;;;;;;3.00;91.10;;;;;;4732136;30;19921;-76
2020/12/26 10:55:57;;;;;;;;;;;3.20;91.60;;;;;;4715243;30;20385;-76
2020/12/26 10:58:23;;;;;;;;;;;3.30;91.10;;;;;;4700237;30;19965;-76
2020/12/26 11:00:48;;;;;;;;;;;3.30;91.80;;;;;;4700703;30;19922;-76
2020/12/26 11:03:14;;;;;;;;;;;3.40;92.30;;;;;;4700657;30;19919;-77
2020/12/26 11:05:39;;;;;;;;;;;3.20;91.80;;;;;;4700420;30;20002;-75
2020/12/26 11:08:05;;;;;;;;;;;3.30;91.10;;;;;;4709391;30;19927;-75
2020/12/26 11:10:31;;;;;;;;;;;3.20;91.90;;;;;;4716633;30;19919;-75
2020/12/26 11:12:56;;;;;;;;;;;3.30;92.00;;;;;;4701676;30;19945;-76
2020/12/26 11:15:22;;;;;;;;;;;3.10;92.70;;;;;;4715298;30;19915;-76
2020/12/26 11:17:48;;;;;;;;;;;2.90;92.50;;;;;;4717670;30;19921;-77
2020/12/26 11:20:14;;;;;;;;;;;2.60;92.40;;;;;;4717876;30;19915;-77
2020/12/26 11:22:39;;;;;;;;;;;2.90;92.10;;;;;;4715524;30;19914;-76
2020/12/26 11:25:05;;;;;;;;;;;3.00;92.40;;;;;;4709406;30;20248;-78
2020/12/26 11:27:30;;;;;;;;;;;3.10;92.50;;;;;;4714939;30;20053;-78
2020/12/26 11:29:57;;;;;;;;;;;3.10;92.40;;;;;;4717583;30;19918;-78
2020/12/26 11:32:23;;;;;;;;;;;3.10;92.90;;;;;;4717281;30;19926;-78
2020/12/26 11:34:51;;;;;;;;;;;3.20;93.70;;;;;;4716564;30;19919;-75
2020/12/26 11:37:17;;;;;;;;;;;3.10;92.60;;;;;;4714491;30;20410;-76
2020/12/26 11:39:45;;;;;;;;;;;3.10;92.30;;;;;;4699077;30;19962;-77
2020/12/26 11:42:13;;;;;;;;;;;3.10;92.50;;;;;;4699328;30;19926;-76
2020/12/26 11:44:40;;;;;;;;;;;3.10;92.80;;;;;;4707303;30;19922;-76
2020/12/26 11:47:06;;;;;;;;;;;3.20;93.20;;;;;;4709058;30;19918;-74
2020/12/26 11:49:32;;;;;;;;;;;3.10;93.10;;;;;;4716639;30;19923;-76
2020/12/26 11:51:57;;;;;;;;;;;3.10;93.00;;;;;;4717049;30;19955;-76
2020/12/26 11:54:24;;;;;;;;;;;3.20;92.80;;;;;;4708829;30;20304;-76
2020/12/26 11:56:55;;;;;;;;;;;3.00;93.00;;;;;;4734114;30;19945;-76
2020/12/26 11:59:21;;;;;;;;;;;3.00;94.10;;;;;;4734157;30;19914;-76
2020/12/26 12:01:47;;;;;;;;;;;2.90;93.20;;;;;;4734596;30;20013;-76
2020/12/26 12:04:13;;;;;;;;;;;2.90;92.60;;;;;;4723943;30;20001;-76
2020/12/26 12:06:39;;;;;;;;;;;2.90;92.90;;;;;;4716409;30;20005;-76
2020/12/26 12:09:05;;;;;;;;;;;3.00;93.10;;;;;;4716527;30;19923;-75
2020/12/26 12:11:31;;;;;;;;;;;3.10;92.30;;;;;;4716759;30;19945;-76
2020/12/26 12:13:56;;;;;;;;;;;3.00;92.20;;;;;;4724537;30;19926;-76
2020/12/26 12:16:22;;;;;;;;;;;3.10;92.10;;;;;;4733965;30;19914;-76
2020/12/26 12:18:47;;;;;;;;;;;3.00;92.90;;;;;;4734624;30;19949;-76
2020/12/26 12:21:13;;;;;;;;;;;3.00;92.50;;;;;;4733760;30;19915;-76
2020/12/26 12:23:39;;;;;;;;;;;3.20;92.40;;;;;;4727761;30;19925;-76
2020/12/26 12:26:04;;;;;;;;;;;3.40;92.10;;;;;;4716234;30;19914;-76
2020/12/26 12:28:30;;;;;;;;;;;3.50;91.50;;;;;;4715318;30;20005;-77
2020/12/26 12:30:56;;;;;;;;;;;3.50;91.70;;;;;;4715956;30;20402;-77
2020/12/26 12:33:21;;;;;;;;;;;3.60;91.50;;;;;;4717222;30;20329;-76
2020/12/26 12:35:47;;;;;;;;;;;3.70;91.40;;;;;;4733249;30;19914;-79
2020/12/26 12:38:13;;;;;;;;;;;3.60;91.00;;;;;;4730694;30;19915;-76
2020/12/26 12:40:38;;;;;;;;;;;3.70;90.70;;;;;;4724783;30;19922;-77
2020/12/26 12:43:04;;;;;;;;;;;3.70;91.10;;;;;;4749176;30;20013;-77
2020/12/26 12:45:30;;;;;;;;;;;3.90;91.10;;;;;;4725406;30;19925;-78
2020/12/26 12:47:55;;;;;;;;;;;3.90;91.50;;;;;;4744137;30;19978;-78
2020/12/26 12:50:21;;;;;;;;;;;3.80;90.80;;;;;;4753092;30;19972;-78
2020/12/26 12:52:46;;;;;;;;;;;3.90;90.80;;;;;;4753287;30;19920;-77
2020/12/26 12:55:12;;;;;;;;;;;4.00;91.60;;;;;;4749911;30;19922;-78
2020/12/26 12:57:38;;;;;;;;;;;4.00;91.50;;;;;;4751937;30;19914;-76
2020/12/26 13:00:04;;;;;;;;;;;4.00;91.60;;;;;;4737811;30;19961;-80
2020/12/26 13:02:30;;;;;;;;;;;4.00;91.30;;;;;;4748704;30;19944;-77
2020/12/26 13:04:56;;;;;;;;;;;4.00;90.60;;;;;;4750506;30;19983;-79
2020/12/26 13:07:22;;;;;;;;;;;4.00;90.50;;;;;;4719256;30;19914;-80
2020/12/26 13:09:48;;;;;;;;;;;3.90;91.40;;;;;;4719909;30;20103;-79
2020/12/26 13:12:13;;;;;;;;;;;3.90;91.60;;;;;;4735154;30;20399;-76
2020/12/26 13:14:39;;;;;;;;;;;3.90;91.70;;;;;;4719394;30;20378;-79
2020/12/26 13:17:05;;;;;;;;;;;3.90;91.60;;;;;;4721388;30;19941;-78
2020/12/26 13:19:31;;;;;;;;;;;3.80;91.70;;;;;;4751462;30;20387;-78
2020/12/26 13:21:56;;;;;;;;;;;3.70;92.10;;;;;;4736871;30;20385;-77
2020/12/26 13:24:22;;;;;;;;;;;3.90;91.60;;;;;;4729837;30;19915;-78
2020/12/26 13:26:48;;;;;;;;;;;4.00;91.60;;;;;;4718254;30;19918;-78
2020/12/26 13:29:14;;;;;;;;;;;4.00;91.60;;;;;;4734234;30;19922;-78
2020/12/26 13:31:41;;;;;;;;;;;4.00;91.60;;;;;;4734604;30;20310;-78
2020/12/26 13:34:07;;;;;;;;;;;3.90;91.20;;;;;;4711159;30;19926;-78
2020/12/26 13:36:33;;;;;;;;;;;3.90;91.50;;;;;;4716448;30;19945;-80
2020/12/26 13:38:59;;;;;;;;;;;3.80;91.50;;;;;;4727328;30;19926;-79
2020/12/26 13:41:26;;;;;;;;;;;3.80;91.80;;;;;;4731680;30;20422;-80
2020/12/26 13:43:52;;;;;;;;;;;3.90;91.90;;;;;;4725130;30;20371;-78
2020/12/26 13:46:18;;;;;;;;;;;4.00;91.50;;;;;;4732187;30;19950;-77
2020/12/26 13:48:43;;;;;;;;;;;3.90;91.60;;;;;;4733089;30;20737;-79
2020/12/26 13:51:09;;;;;;;;;;;3.90;91.40;;;;;;4732106;30;19920;-77
2020/12/26 13:53:35;;;;;;;;;;;3.90;91.40;;;;;;4732318;30;19933;-78
2020/12/26 13:56:01;;;;;;;;;;;3.90;91.30;;;;;;4733975;30;20367;-77
2020/12/26 13:58:30;;;;;;;;;;;4.00;91.30;;;;;;4734132;30;19918;-78
2020/12/26 14:00:56;;;;;;;;;;;4.00;91.20;;;;;;4732986;30;19988;-76
2020/12/26 14:03:22;;;;;;;;;;;4.20;91.20;;;;;;4718446;30;19914;-76
2020/12/26 14:05:47;;;;;;;;;;;4.20;90.90;;;;;;4731688;30;19914;-78
2020/12/26 14:08:13;;;;;;;;;;;4.10;90.80;;;;;;4731706;30;20300;-77
2020/12/26 14:10:39;;;;;;;;;;;4.10;90.80;;;;;;4732282;30;19914;-77
2020/12/26 14:13:04;;;;;;;;;;;4.10;90.50;;;;;;4733524;30;19941;-76
2020/12/26 14:15:30;;;;;;;;;;;4.10;90.60;;;;;;4718933;30;19919;-76
2020/12/26 14:17:56;;;;;;;;;;;4.00;90.50;;;;;;4727604;30;19926;-76
2020/12/26 14:20:21;;;;;;;;;;;4.00;90.30;;;;;;4734608;30;19930;-76
2020/12/26 14:22:47;;;;;;;;;;;3.90;90.40;;;;;;4734141;30;19971;-76
2020/12/26 14:25:13;;;;;;;;;;;4.00;91.20;;;;;;4735036;30;19914;-76
2020/12/26 14:27:38;;;;;;;;;;;4.00;91.30;;;;;;4735120;30;20001;-77